Time;durP1;ratioP1;P1;durP2;ratioP2;P2;SDS_P1;SDS_P2;PMS_P1;PMS_P2;Temp;Humidity;BMP_temperature;BMP_pressure;BME280_temperature;BME280_humidity;BME280_pressure;Samples;Min_cycle;Max_cycle;Signal;HPM_P1;HPM_P2
2022/09/17 00:01:21;;;;;;;1.92;1.08;;;11.20;99.90;;;;;;5053173;28;20204;-67
2022/09/17 00:03:51;;;;;;;1.45;0.90;;;11.20;99.90;;;;;;5049682;28;20200;-67
2022/09/17 00:06:19;;;;;;;1.42;1.02;;;11.20;99.90;;;;;;5053523;28;20271;-68
2022/09/17 00:08:47;;;;;;;1.88;1.10;;;11.20;99.90;;;;;;5042520;28;20212;-67
2022/09/17 00:11:19;;;;;;;2.20;1.20;;;11.30;99.90;;;;;;5053167;28;20204;-68
2022/09/17 00:13:49;;;;;;;3.28;1.10;;;11.40;99.90;;;;;;5050876;28;20201;-68
2022/09/17 00:16:25;;;;;;;4.05;1.50;;;11.30;99.90;;;;;;5050984;28;20197;-67
2022/09/17 00:18:53;;;;;;;1.23;1.00;;;11.40;99.90;;;;;;5040703;28;20195;-67
2022/09/17 00:21:22;;;;;;;1.40;0.98;;;11.40;99.90;;;;;;5052951;28;20468;-67
2022/09/17 00:23:54;;;;;;;1.73;1.30;;;11.40;99.90;;;;;;5052004;28;20204;-67
2022/09/17 00:26:22;;;;;;;3.80;1.10;;;11.50;99.90;;;;;;5045061;28;20205;-67
2022/09/17 00:28:54;;;;;;;1.00;0.95;;;11.50;99.90;;;;;;5051875;28;20208;-69
2022/09/17 00:31:25;;;;;;;1.85;1.08;;;11.50;99.90;;;;;;5046342;28;20205;-67
2022/09/17 00:33:53;;;;;;;3.25;1.02;;;11.60;99.90;;;;;;5038970;28;20201;-68
2022/09/17 00:36:22;;;;;;;1.92;1.15;;;11.60;99.90;;;;;;5043502;28;20211;-67
2022/09/17 00:38:50;;;;;;;1.75;1.10;;;11.60;99.90;;;;;;5051744;28;20216;-67
2022/09/17 00:41:19;;;;;;;1.60;1.05;;;11.60;99.90;;;;;;5052664;28;20208;-68
2022/09/17 00:43:49;;;;;;;4.32;1.42;;;11.50;99.90;;;;;;5051905;28;20211;-67
2022/09/17 00:46:32;;;;;;;3.25;1.15;;;11.50;99.90;;;;;;5052460;28;20575;-67
2022/09/17 00:49:03;;;;;;;2.90;1.35;;;11.50;99.90;;;;;;5050736;28;20192;-67
2022/09/17 00:51:35;;;;;;;4.35;1.13;;;11.40;99.90;;;;;;5052092;28;20193;-68
2022/09/17 00:54:07;;;;;;;1.83;1.20;;;11.40;99.90;;;;;;5051777;28;20193;-69
2022/09/17 00:56:38;;;;;;;1.40;1.00;;;11.40;99.90;;;;;;5051645;28;20223;-68
2022/09/17 00:59:09;;;;;;;3.30;1.27;;;11.30;99.90;;;;;;5050017;28;20191;-66
2022/09/17 01:01:38;;;;;;;2.17;1.75;;;11.30;99.90;;;;;;5050823;28;20197;-66
2022/09/17 01:04:06;;;;;;;1.10;0.90;;;11.30;99.90;;;;;;5051550;28;20590;-67
2022/09/17 01:06:41;;;;;;;4.13;1.30;;;11.20;99.90;;;;;;5040320;28;20274;-67
2022/09/17 01:09:28;;;;;;;2.30;0.93;;;11.10;99.90;;;;;;5051252;28;20242;-66
2022/09/17 01:12:17;;;;;;;1.65;0.80;;;11.10;99.90;;;;;;5051244;28;20192;-67
2022/09/17 01:15:00;;;;;;;1.30;1.20;;;11.10;99.90;;;;;;5050200;28;20199;-67
2022/09/17 01:17:39;;;;;;;1.77;1.45;;;11.20;99.90;;;;;;5039469;28;20253;-67
2022/09/17 01:20:47;;;;;;;1.95;1.40;;;11.10;99.90;;;;;;5050729;28;20196;-67
2022/09/17 01:23:41;;;;;;;1.50;1.40;;;11.10;99.90;;;;;;5038805;28;20261;-67
2022/09/17 01:26:30;;;;;;;1.23;1.13;;;11.00;99.90;;;;;;5039667;28;20204;-67
2022/09/17 01:29:08;;;;;;;1.45;1.35;;;11.00;99.90;;;;;;5035755;28;20242;-67
2022/09/17 01:31:43;;;;;;;5.22;1.30;;;11.00;99.90;;;;;;5048092;28;20188;-67
2022/09/17 01:34:20;;;;;;;3.90;1.35;;;10.90;99.90;;;;;;5048136;28;20562;-67
2022/09/17 01:37:02;;;;;;;2.42;1.08;;;10.90;99.90;;;;;;5049730;28;20273;-67
2022/09/17 01:39:40;;;;;;;2.45;1.38;;;10.90;99.90;;;;;;5051066;28;20226;-67
2022/09/17 01:42:18;;;;;;;1.40;1.20;;;10.80;99.90;;;;;;5051016;28;20211;-67
2022/09/17 01:44:56;;;;;;;2.28;1.35;;;10.80;99.90;;;;;;5050362;28;20187;-67
2022/09/17 01:47:31;;;;;;;1.60;1.00;;;10.80;99.90;;;;;;5043901;28;20205;-67
2022/09/17 01:50:04;;;;;;;5.35;1.13;;;10.80;99.90;;;;;;5045263;28;20246;-67
2022/09/17 01:52:35;;;;;;;5.15;1.30;;;10.70;99.90;;;;;;5051001;28;20193;-67
2022/09/17 01:55:07;;;;;;;2.90;1.55;;;10.70;99.90;;;;;;5050970;28;20556;-67
2022/09/17 01:57:41;;;;;;;1.85;1.55;;;10.70;99.90;;;;;;5050659;28;20220;-67
2022/09/17 02:00:12;;;;;;;1.95;1.20;;;10.60;99.90;;;;;;5050682;28;20197;-67
2022/09/17 02:02:46;;;;;;;1.13;1.02;;;10.60;99.90;;;;;;5050052;28;20197;-67
2022/09/17 02:05:19;;;;;;;3.83;1.30;;;10.60;99.90;;;;;;5050736;28;20202;-67
2022/09/17 02:07:51;;;;;;;3.10;1.17;;;10.50;99.90;;;;;;5050919;28;20212;-67
2022/09/17 02:10:22;;;;;;;3.55;1.30;;;10.50;99.90;;;;;;5052271;28;20254;-67
2022/09/17 02:12:56;;;;;;;2.45;1.25;;;10.50;99.90;;;;;;5054503;28;20199;-67
2022/09/17 02:15:30;;;;;;;1.52;1.42;;;10.50;99.90;;;;;;5054564;28;20189;-67
2022/09/17 02:18:05;;;;;;;1.48;1.38;;;10.40;99.90;;;;;;5035989;28;20209;-67
2022/09/17 02:20:40;;;;;;;4.80;1.20;;;10.30;99.90;;;;;;5052817;28;20204;-67
2022/09/17 02:23:15;;;;;;;1.20;1.02;;;10.30;99.90;;;;;;5054993;28;20292;-67
2022/09/17 02:25:50;;;;;;;2.17;1.10;;;10.30;99.90;;;;;;5054555;28;20203;-67
2022/09/17 02:28:24;;;;;;;5.82;1.38;;;10.30;99.90;;;;;;5055069;28;20193;-67
2022/09/17 02:30:52;;;;;;;1.23;1.10;;;10.30;99.90;;;;;;5054164;28;20658;-67
2022/09/17 02:33:22;;;;;;;3.33;1.38;;;10.20;99.90;;;;;;5054660;28;20243;-67
2022/09/17 02:35:50;;;;;;;2.80;1.65;;;10.20;99.90;;;;;;5053676;28;20208;-67
2022/09/17 02:38:23;;;;;;;1.52;1.15;;;10.10;99.90;;;;;;5055011;28;20218;-67
2022/09/17 02:40:57;;;;;;;2.35;1.40;;;10.10;99.90;;;;;;5052656;28;20196;-67
2022/09/17 02:43:34;;;;;;;1.98;1.80;;;10.00;99.90;;;;;;5054800;28;20202;-67
2022/09/17 02:46:17;;;;;;;4.45;1.30;;;10.00;99.90;;;;;;5054510;28;20189;-67
2022/09/17 02:49:07;;;;;;;4.72;1.60;;;9.90;99.90;;;;;;5053213;28;20200;-67
2022/09/17 02:51:44;;;;;;;7.13;1.80;;;9.90;99.90;;;;;;5054340;28;20204;-67
2022/09/17 02:54:20;;;;;;;1.80;1.23;;;9.80;99.90;;;;;;5053991;28;20223;-67
2022/09/17 02:56:55;;;;;;;3.22;1.77;;;9.80;99.90;;;;;;5040834;28;20224;-67
2022/09/17 02:59:28;;;;;;;2.97;1.67;;;9.70;99.90;;;;;;5053669;28;20195;-67
2022/09/17 03:02:01;;;;;;;3.83;2.13;;;9.70;99.90;;;;;;5054041;28;20213;-67
2022/09/17 03:04:32;;;;;;;10.13;1.92;;;9.70;99.90;;;;;;5053309;28;20197;-67
2022/09/17 03:07:04;;;;;;;2.38;2.00;;;9.60;99.90;;;;;;5053625;28;20539;-67
2022/09/17 03:09:32;;;;;;;2.65;1.73;;;9.60;99.90;;;;;;5052991;28;20197;-67
2022/09/17 03:12:01;;;;;;;4.45;4.05;;;9.60;99.90;;;;;;5053791;28;20204;-67
2022/09/17 03:14:29;;;;;;;5.05;1.80;;;9.50;99.90;;;;;;5040881;28;20207;-67
2022/09/17 03:16:56;;;;;;;2.47;2.10;;;9.50;99.90;;;;;;5053382;28;20231;-67
2022/09/17 03:19:24;;;;;;;7.47;1.98;;;9.50;99.90;;;;;;5053400;28;20604;-67
2022/09/17 03:21:54;;;;;;;5.03;2.05;;;9.50;99.90;;;;;;5052343;28;20255;-67
2022/09/17 03:24:22;;;;;;;5.13;1.88;;;9.50;99.90;;;;;;5051407;28;20204;-67
2022/09/17 03:26:50;;;;;;;2.40;1.95;;;9.40;99.90;;;;;;5052425;28;20585;-68
2022/09/17 03:29:18;;;;;;;3.13;2.45;;;9.30;99.90;;;;;;5053071;28;20716;-67
2022/09/17 03:31:46;;;;;;;4.85;1.95;;;9.30;99.90;;;;;;5053171;28;20224;-67
2022/09/17 03:34:14;;;;;;;2.45;2.00;;;9.30;99.90;;;;;;5053112;28;20578;-67
2022/09/17 03:36:42;;;;;;;3.70;2.05;;;9.30;99.90;;;;;;5053044;28;20196;-67
2022/09/17 03:39:11;;;;;;;2.15;1.92;;;9.30;99.90;;;;;;5053194;28;20893;-68
2022/09/17 03:41:39;;;;;;;3.67;1.90;;;9.30;99.90;;;;;;5053142;28;20200;-67
2022/09/17 03:44:09;;;;;;;3.00;2.42;;;9.40;99.90;;;;;;5051480;28;20204;-67
2022/09/17 03:46:37;;;;;;;3.92;2.30;;;9.40;99.90;;;;;;5049718;28;20614;-69
2022/09/17 03:49:05;;;;;;;1.80;1.70;;;9.40;99.90;;;;;;5052642;28;20231;-67
2022/09/17 03:51:33;;;;;;;6.85;2.22;;;9.40;99.90;;;;;;5052358;28;20207;-67
2022/09/17 03:54:01;;;;;;;3.85;2.33;;;9.40;99.90;;;;;;5053051;28;20215;-67
2022/09/17 03:56:30;;;;;;;4.03;2.20;;;9.40;99.90;;;;;;5052748;28;20216;-66
2022/09/17 03:58:59;;;;;;;4.95;2.42;;;9.40;99.90;;;;;;5052523;28;20196;-67
2022/09/17 04:01:28;;;;;;;2.13;1.85;;;9.30;99.90;;;;;;5051431;28;20212;-68
2022/09/17 04:03:56;;;;;;;2.85;2.15;;;9.30;99.90;;;;;;5048432;28;20209;-68
2022/09/17 04:06:24;;;;;;;5.80;2.45;;;9.30;99.90;;;;;;5036862;28;20231;-67
2022/09/17 04:08:52;;;;;;;5.47;2.17;;;9.30;99.90;;;;;;5052216;28;20208;-68
2022/09/17 04:11:20;;;;;;;2.20;1.95;;;9.20;99.90;;;;;;5052203;28;20663;-67
2022/09/17 04:13:49;;;;;;;10.93;1.92;;;9.30;99.90;;;;;;5052375;28;20196;-68
2022/09/17 04:16:17;;;;;;;6.50;2.60;;;9.40;99.90;;;;;;5052494;28;20203;-68
2022/09/17 04:18:45;;;;;;;1.80;1.70;;;9.30;99.90;;;;;;5051851;28;20201;-67
2022/09/17 04:21:13;;;;;;;2.95;2.22;;;9.40;99.90;;;;;;5052234;28;20209;-67
2022/09/17 04:23:41;;;;;;;6.25;2.20;;;9.40;99.90;;;;;;5051889;28;20203;-68
2022/09/17 04:26:09;;;;;;;3.80;2.28;;;9.40;99.90;;;;;;5052354;28;20200;-67
2022/09/17 04:28:37;;;;;;;7.35;1.90;;;9.40;99.90;;;;;;5051416;28;20226;-67
2022/09/17 04:31:06;;;;;;;3.75;2.15;;;9.50;99.90;;;;;;5052511;28;20631;-68
2022/09/17 04:33:34;;;;;;;6.30;2.40;;;9.40;99.90;;;;;;5051019;28;20301;-68
2022/09/17 04:36:03;;;;;;;6.88;2.05;;;9.40;99.90;;;;;;5051762;28;20209;-67
2022/09/17 04:38:32;;;;;;;7.10;2.45;;;9.40;99.90;;;;;;5051716;28;20651;-67
2022/09/17 04:41:00;;;;;;;4.82;2.28;;;9.30;99.90;;;;;;5051746;28;20714;-68
2022/09/17 04:43:28;;;;;;;2.45;2.25;;;9.40;99.90;;;;;;5051983;28;20208;-68
2022/09/17 04:45:56;;;;;;;3.22;2.00;;;9.30;99.90;;;;;;5051601;28;20615;-67
2022/09/17 04:48:25;;;;;;;3.58;2.30;;;9.30;99.90;;;;;;5051543;28;20224;-67
2022/09/17 04:50:53;;;;;;;2.50;2.25;;;9.40;99.90;;;;;;5051406;28;20322;-68
2022/09/17 04:53:20;;;;;;;3.92;2.20;;;9.40;99.90;;;;;;5051300;28;20189;-68
2022/09/17 04:55:48;;;;;;;6.68;2.20;;;9.50;99.90;;;;;;5052068;28;20200;-68
2022/09/17 04:58:16;;;;;;;4.22;2.85;;;9.50;99.90;;;;;;5050962;28;20205;-68
2022/09/17 05:00:44;;;;;;;2.38;2.17;;;9.50;99.90;;;;;;5050737;28;20204;-67
2022/09/17 05:03:12;;;;;;;4.60;2.30;;;9.60;99.90;;;;;;5050807;28;20570;-67
2022/09/17 05:05:41;;;;;;;4.18;2.35;;;9.60;99.90;;;;;;5039415;28;20208;-67
2022/09/17 05:08:09;;;;;;;4.22;2.30;;;9.60;99.90;;;;;;5051228;28;20224;-67
2022/09/17 05:10:39;;;;;;;2.70;2.45;;;9.70;99.90;;;;;;5065457;28;20201;-68
2022/09/17 05:13:07;;;;;;;5.05;2.28;;;9.70;99.90;;;;;;5048268;28;20207;-68
2022/09/17 05:15:35;;;;;;;4.65;2.30;;;9.70;99.90;;;;;;5034954;28;20212;-67
2022/09/17 05:18:03;;;;;;;4.45;2.30;;;9.70;99.90;;;;;;5049060;28;20205;-68
2022/09/17 05:20:31;;;;;;;11.43;2.83;;;9.70;99.90;;;;;;5047851;28;20215;-68
2022/09/17 05:23:00;;;;;;;7.43;2.75;;;9.80;99.90;;;;;;5050622;28;20316;-67
2022/09/17 05:25:31;;;;;;;3.50;2.28;;;9.70;99.90;;;;;;5049601;28;20204;-68
2022/09/17 05:28:00;;;;;;;3.20;2.47;;;9.80;99.90;;;;;;5043304;28;20215;-68
2022/09/17 05:30:28;;;;;;;8.82;2.60;;;9.70;99.90;;;;;;5047354;28;20288;-68
2022/09/17 05:33:00;;;;;;;3.60;2.50;;;9.70;99.90;;;;;;5049286;28;20703;-68
2022/09/17 05:35:29;;;;;;;4.80;2.85;;;9.60;99.90;;;;;;5048511;28;20507;-68
2022/09/17 05:38:00;;;;;;;3.03;2.72;;;9.60;99.90;;;;;;5050217;28;20197;-68
2022/09/17 05:40:29;;;;;;;3.45;2.88;;;9.50;99.90;;;;;;5048733;28;20662;-68
2022/09/17 05:43:00;;;;;;;4.53;3.05;;;9.50;99.90;;;;;;5051343;28;20200;-68
2022/09/17 05:45:28;;;;;;;4.50;4.10;;;9.50;99.90;;;;;;5047142;28;20643;-68
2022/09/17 05:47:57;;;;;;;4.95;3.00;;;9.50;99.90;;;;;;5046680;28;20220;-68
2022/09/17 05:50:26;;;;;;;4.07;2.80;;;9.50;99.90;;;;;;5048641;28;20667;-67
2022/09/17 05:52:54;;;;;;;5.30;2.63;;;9.50;99.90;;;;;;5049309;28;20203;-68
2022/09/17 05:55:24;;;;;;;3.15;2.72;;;9.60;99.90;;;;;;5048216;28;20208;-68
2022/09/17 05:57:52;;;;;;;4.13;2.80;;;9.60;99.90;;;;;;5047596;28;21364;-68
2022/09/17 06:00:20;;;;;;;11.85;3.17;;;9.60;99.90;;;;;;5047779;28;20196;-68
2022/09/17 06:02:54;;;;;;;3.92;2.40;;;9.60;99.90;;;;;;5047809;28;20200;-67
2022/09/17 06:05:22;;;;;;;6.57;3.55;;;9.60;99.90;;;;;;5030164;28;20189;-68
2022/09/17 06:07:50;;;;;;;2.80;2.50;;;9.60;99.90;;;;;;5048993;28;20232;-68
2022/09/17 06:10:18;;;;;;;4.95;2.72;;;9.60;99.90;;;;;;5048805;28;20200;-68
2022/09/17 06:12:47;;;;;;;5.22;2.90;;;9.60;99.90;;;;;;5049269;28;20640;-67
2022/09/17 06:15:15;;;;;;;5.60;2.10;;;9.70;99.90;;;;;;5048307;28;20712;-68
2022/09/17 06:17:43;;;;;;;2.58;2.45;;;9.70;99.90;;;;;;5049163;28;20212;-68
2022/09/17 06:20:11;;;;;;;4.65;2.92;;;9.70;99.90;;;;;;5049473;28;20197;-67
2022/09/17 06:22:39;;;;;;;5.35;3.60;;;9.70;99.90;;;;;;5049232;28;20205;-68
2022/09/17 06:25:08;;;;;;;2.50;2.30;;;9.70;99.90;;;;;;5049178;28;20599;-67
2022/09/17 06:27:36;;;;;;;8.00;2.40;;;9.80;99.90;;;;;;5043810;28;20246;-68
2022/09/17 06:30:06;;;;;;;7.60;3.63;;;9.80;99.90;;;;;;5047048;28;20201;-68
2022/09/17 06:32:34;;;;;;;3.80;3.25;;;9.90;99.90;;;;;;5049774;28;20232;-66
2022/09/17 06:35:02;;;;;;;5.25;2.65;;;9.90;99.90;;;;;;5048545;28;20204;-67
2022/09/17 06:37:32;;;;;;;5.60;3.10;;;10.00;99.90;;;;;;5051268;28;20201;-69
2022/09/17 06:40:00;;;;;;;8.05;2.95;;;10.00;99.90;;;;;;5047537;28;20557;-66
2022/09/17 06:42:28;;;;;;;7.25;2.53;;;10.00;99.90;;;;;;5048556;28;20204;-67
2022/09/17 06:44:57;;;;;;;3.17;2.85;;;10.20;99.90;;;;;;5051395;28;20205;-67
2022/09/17 06:47:26;;;;;;;7.00;2.25;;;10.30;99.90;;;;;;5049245;28;20197;-67
2022/09/17 06:49:55;;;;;;;6.32;3.03;;;10.30;99.90;;;;;;5048484;28;20647;-67
2022/09/17 06:52:23;;;;;;;4.05;2.25;;;10.40;99.90;;;;;;5050095;28;20219;-67
2022/09/17 06:54:52;;;;;;;10.23;2.70;;;10.40;99.90;;;;;;5048639;28;20234;-67
2022/09/17 06:57:20;;;;;;;8.05;2.15;;;10.60;99.90;;;;;;5051439;28;20227;-67
2022/09/17 06:59:48;;;;;;;4.82;2.65;;;10.70;99.90;;;;;;5053763;28;20674;-67
2022/09/17 07:02:16;;;;;;;3.70;2.25;;;11.00;99.90;;;;;;5054053;28;20204;-67
2022/09/17 07:04:45;;;;;;;5.07;1.90;;;11.00;99.90;;;;;;5053138;28;20216;-66
2022/09/17 07:07:13;;;;;;;2.83;2.10;;;11.30;99.90;;;;;;5053646;28;20209;-67
2022/09/17 07:09:41;;;;;;;6.25;2.10;;;11.60;99.90;;;;;;5052257;28;20683;-67
2022/09/17 07:12:09;;;;;;;7.85;2.30;;;11.90;99.90;;;;;;5052014;28;20208;-67
2022/09/17 07:14:37;;;;;;;7.40;2.20;;;12.40;99.90;;;;;;5051555;28;20218;-67
2022/09/17 07:17:06;;;;;;;3.70;1.95;;;12.60;99.90;;;;;;5041782;28;20200;-67
2022/09/17 07:19:34;;;;;;;3.90;2.00;;;12.50;99.90;;;;;;5053016;28;20564;-67
2022/09/17 07:22:07;;;;;;;3.92;1.65;;;12.30;99.90;;;;;;5053630;28;20197;-67
2022/09/17 07:24:35;;;;;;;6.78;2.17;;;12.50;99.90;;;;;;5053021;28;20201;-67
2022/09/17 07:27:03;;;;;;;4.80;1.80;;;12.60;99.90;;;;;;5052563;28;20201;-67
2022/09/17 07:29:31;;;;;;;3.67;1.90;;;13.00;99.90;;;;;;5052389;28;20224;-66
2022/09/17 07:31:59;;;;;;;3.05;1.55;;;13.10;99.90;;;;;;5052609;28;20247;-66
2022/09/17 07:34:27;;;;;;;2.63;1.50;;;12.90;99.90;;;;;;5055251;28;20201;-66
2022/09/17 07:36:55;;;;;;;6.28;2.03;;;12.80;99.90;;;;;;5052896;28;20234;-66
2022/09/17 07:39:25;;;;;;;3.05;2.00;;;13.00;99.90;;;;;;5053385;28;20554;-67
2022/09/17 07:41:52;;;;;;;2.40;1.65;;;13.10;99.90;;;;;;5052377;28;20203;-67
2022/09/17 07:44:21;;;;;;;3.53;1.60;;;13.00;99.90;;;;;;5052340;28;20193;-67
2022/09/17 07:46:49;;;;;;;6.60;2.10;;;13.20;99.90;;;;;;5053065;28;20582;-66
2022/09/17 07:49:16;;;;;;;3.42;1.73;;;13.10;99.90;;;;;;5052203;28;20223;-66
2022/09/17 07:51:44;;;;;;;3.50;1.80;;;12.70;99.90;;;;;;5052792;28;20204;-66
2022/09/17 07:54:12;;;;;;;5.80;1.97;;;12.60;99.90;;;;;;5051113;28;20638;-66
2022/09/17 07:56:41;;;;;;;5.63;2.38;;;12.60;99.90;;;;;;5052256;28;20668;-66
2022/09/17 07:59:09;;;;;;;4.72;1.85;;;12.50;99.90;;;;;;5051726;28;20268;-66
2022/09/17 08:01:37;;;;;;;3.03;2.30;;;12.30;99.90;;;;;;5052279;28;20211;-66
2022/09/17 08:04:06;;;;;;;4.65;1.85;;;12.30;99.90;;;;;;5051447;28;20254;-66
2022/09/17 08:06:39;;;;;;;5.57;2.00;;;12.60;99.90;;;;;;5052108;28;20208;-66
2022/09/17 08:09:09;;;;;;;5.63;2.00;;;13.00;99.90;;;;;;5048424;28;20756;-66
2022/09/17 08:11:37;;;;;;;3.35;2.03;;;12.80;99.90;;;;;;5052357;28;20623;-66
2022/09/17 08:14:07;;;;;;;4.30;1.90;;;12.50;99.90;;;;;;5052371;28;20678;-68
2022/09/17 08:16:35;;;;;;;4.05;1.85;;;12.90;99.90;;;;;;5051321;28;20630;-68
2022/09/17 08:19:02;;;;;;;4.20;1.70;;;13.20;99.90;;;;;;5052800;28;20204;-68
2022/09/17 08:21:30;;;;;;;9.95;1.92;;;13.40;99.90;;;;;;5051066;28;20208;-68
2022/09/17 08:23:58;;;;;;;5.23;2.10;;;12.90;99.90;;;;;;5051494;28;20205;-67
2022/09/17 08:26:26;;;;;;;3.50;2.10;;;12.80;99.90;;;;;;5051614;28;20974;-68
2022/09/17 08:28:55;;;;;;;3.47;2.38;;;12.70;99.90;;;;;;5051830;28;20201;-68
2022/09/17 08:31:27;;;;;;;9.27;2.20;;;12.80;99.90;;;;;;5049967;28;20589;-68
2022/09/17 08:33:55;;;;;;;3.55;1.50;;;12.80;99.90;;;;;;5049903;28;20218;-68
2022/09/17 08:36:24;;;;;;;7.68;1.98;;;13.20;99.90;;;;;;5050852;28;20204;-68
2022/09/17 08:38:53;;;;;;;6.25;2.08;;;13.60;99.90;;;;;;5051206;28;20197;-68
2022/09/17 08:41:32;;;;;;;4.38;1.88;;;13.10;99.90;;;;;;5052251;28;20185;-67
2022/09/17 08:44:15;;;;;;;4.97;2.20;;;13.40;99.90;;;;;;5047754;28;20747;-67
2022/09/17 08:46:47;;;;;;;3.45;1.95;;;13.50;99.90;;;;;;5043796;28;20200;-67
2022/09/17 08:49:25;;;;;;;5.90;1.53;;;13.80;99.90;;;;;;5050332;28;20451;-69
2022/09/17 08:52:16;;;;;;;4.27;2.07;;;13.90;99.90;;;;;;5051225;28;20622;-68
2022/09/17 08:54:50;;;;;;;5.37;2.37;;;13.90;99.90;;;;;;5064255;28;21257;-68
2022/09/17 08:57:26;;;;;;;3.43;1.67;;;13.90;99.90;;;;;;5052127;28;20606;-68
2022/09/17 09:00:01;;;;;;;2.47;1.70;;;13.50;99.90;;;;;;5050039;28;21107;-68
2022/09/17 09:02:46;;;;;;;5.43;1.90;;;13.80;99.90;;;;;;5050640;28;20689;-68
2022/09/17 09:05:18;;;;;;;4.13;1.80;;;14.00;99.90;;;;;;5048758;28;20573;-68
2022/09/17 09:07:50;;;;;;;3.10;1.97;;;14.00;99.90;;;;;;5051205;28;20589;-68
2022/09/17 09:10:23;;;;;;;2.67;1.60;;;13.90;99.90;;;;;;5050648;28;21200;-68
2022/09/17 09:12:53;;;;;;;5.15;2.05;;;14.00;99.90;;;;;;5051812;28;20604;-68
2022/09/17 09:15:37;;;;;;;2.07;1.70;;;14.30;99.90;;;;;;5050636;28;20676;-68
2022/09/17 09:18:17;;;;;;;3.40;1.50;;;14.20;99.90;;;;;;5051950;28;21001;-68
2022/09/17 09:20:50;;;;;;;6.20;1.60;;;14.40;99.90;;;;;;5049717;28;20622;-68
2022/09/17 09:23:21;;;;;;;2.67;1.40;;;14.40;99.90;;;;;;5051312;28;20634;-68
2022/09/17 09:25:55;;;;;;;2.37;1.87;;;14.40;99.90;;;;;;5050300;28;20206;-68
2022/09/17 09:28:35;;;;;;;4.77;1.70;;;14.40;99.90;;;;;;5034215;28;21157;-68
2022/09/17 09:31:18;;;;;;;2.03;1.83;;;14.60;99.90;;;;;;5049794;28;20657;-68
2022/09/17 09:33:48;;;;;;;6.90;1.83;;;14.90;99.90;;;;;;5051520;28;20757;-68
2022/09/17 09:36:20;;;;;;;3.83;2.10;;;15.10;99.90;;;;;;5050705;28;20611;-68
2022/09/17 09:38:56;;;;;;;6.50;2.03;;;14.90;99.90;;;;;;5051522;28;20599;-68
2022/09/17 09:41:29;;;;;;;2.90;1.33;;;14.80;99.90;;;;;;5050194;28;20602;-68
2022/09/17 09:44:02;;;;;;;4.27;1.77;;;14.90;99.90;;;;;;5050732;28;21143;-68
2022/09/17 09:46:56;;;;;;;2.07;1.73;;;14.50;99.90;;;;;;5050368;28;20625;-68
2022/09/17 09:49:39;;;;;;;3.87;1.47;;;14.50;99.90;;;;;;5049489;28;20610;-68
2022/09/17 09:52:20;;;;;;;5.87;1.93;;;14.70;99.90;;;;;;5038297;28;20592;-68
2022/09/17 09:55:01;;;;;;;4.67;2.03;;;15.30;99.90;;;;;;5051596;28;20634;-68
2022/09/17 09:57:39;;;;;;;2.50;1.50;;;15.20;99.90;;;;;;5050878;28;20612;-68
2022/09/17 10:00:25;;;;;;;8.20;2.03;;;15.00;99.90;;;;;;5048613;28;20978;-68
2022/09/17 10:03:06;;;;;;;4.43;2.20;;;15.20;99.90;;;;;;5042500;28;20619;-68
2022/09/17 10:05:35;;;;;;;4.80;2.73;;;15.40;99.90;;;;;;5048857;28;20609;-67
2022/09/17 10:08:12;;;;;;;3.03;1.77;;;15.60;99.90;;;;;;5049324;28;20619;-67
2022/09/17 10:10:54;;;;;;;3.07;2.10;;;15.40;99.90;;;;;;5050808;28;20655;-67
2022/09/17 10:13:22;;;;;;;6.80;2.00;;;15.10;99.90;;;;;;5050289;28;20591;-68
2022/09/17 10:15:50;;;;;;;5.00;2.37;;;15.40;99.90;;;;;;5049776;28;21236;-67
2022/09/17 10:18:20;;;;;;;5.27;2.30;;;15.00;99.90;;;;;;5050712;28;20627;-68
2022/09/17 10:20:58;;;;;;;4.40;1.80;;;15.20;99.90;;;;;;5050670;28;20594;-68
2022/09/17 10:23:28;;;;;;;5.90;1.63;;;14.90;99.90;;;;;;5048875;28;20581;-67
2022/09/17 10:25:57;;;;;;;4.90;1.60;;;14.90;99.90;;;;;;5050252;28;21207;-67
2022/09/17 10:28:34;;;;;;;2.70;1.77;;;15.00;99.90;;;;;;5050437;28;20585;-68
2022/09/17 10:31:07;;;;;;;2.60;1.87;;;15.40;99.90;;;;;;5060723;28;21212;-67
2022/09/17 10:33:37;;;;;;;3.93;1.60;;;14.60;99.90;;;;;;5053499;28;20655;-67
2022/09/17 10:36:08;;;;;;;2.70;2.00;;;14.50;99.90;;;;;;5053250;28;20630;-67
2022/09/17 10:38:39;;;;;;;4.50;2.17;;;14.80;99.90;;;;;;5045380;28;20676;-68
2022/09/17 10:41:20;;;;;;;2.70;1.97;;;15.40;99.90;;;;;;5053809;28;20603;-68
2022/09/17 10:43:49;;;;;;;8.00;2.43;;;16.10;99.90;;;;;;5053675;28;20581;-67
2022/09/17 10:46:20;;;;;;;3.67;2.17;;;15.70;99.90;;;;;;5053909;28;20593;-68
2022/09/17 10:49:08;;;;;;;4.60;1.60;;;15.50;99.90;;;;;;5053420;28;20589;-67
2022/09/17 10:51:39;;;;;;;3.30;1.63;;;15.20;99.90;;;;;;5042743;28;20643;-68
2022/09/17 10:54:39;;;;;;;3.67;1.70;;;15.10;99.90;;;;;;5048599;28;20614;-67
2022/09/17 10:57:11;;;;;;;4.30;1.73;;;14.80;99.90;;;;;;5041636;28;21307;-67
2022/09/17 10:59:59;;;;;;;3.90;2.33;;;14.60;99.90;;;;;;5053117;28;21326;-69
2022/09/17 11:03:05;;;;;;;3.10;1.37;;;14.80;99.90;;;;;;5052743;28;20610;-68
2022/09/17 11:05:49;;;;;;;3.50;1.60;;;15.00;99.90;;;;;;5053294;28;21184;-67
2022/09/17 11:08:25;;;;;;;4.20;1.77;;;15.40;99.90;;;;;;5068406;28;20674;-67
2022/09/17 11:11:04;;;;;;;1.83;1.73;;;15.80;99.90;;;;;;5053913;28;20666;-67
2022/09/17 11:13:39;;;;;;;3.67;1.53;;;15.70;99.90;;;;;;5052292;28;20610;-69
2022/09/17 11:16:19;;;;;;;3.33;1.57;;;15.30;99.90;;;;;;5050619;28;20602;-67
2022/09/17 11:18:55;;;;;;;3.13;1.70;;;14.90;99.90;;;;;;5042496;28;20612;-68
2022/09/17 11:21:44;;;;;;;5.83;1.90;;;15.00;99.90;;;;;;5033001;28;20624;-68
2022/09/17 11:24:47;;;;;;;4.13;1.67;;;14.80;99.90;;;;;;5032981;28;21192;-68
2022/09/17 11:27:34;;;;;;;3.43;1.50;;;14.60;99.90;;;;;;5035938;28;20619;-68
2022/09/17 11:30:14;;;;;;;2.60;1.33;;;14.40;99.90;;;;;;5032838;28;20908;-68
2022/09/17 11:33:28;;;;;;;3.10;1.47;;;13.60;99.90;;;;;;5051003;28;21025;-68
2022/09/17 11:36:00;;;;;;;1.50;1.00;;;13.00;99.90;;;;;;5007105;28;20637;-68
2022/09/17 11:38:42;;;;;;;2.58;1.10;;;12.50;99.90;;;;;;5041127;28;20197;-68
2022/09/17 11:41:14;;;;;;;3.47;1.25;;;12.20;99.90;;;;;;5036540;28;20186;-68
2022/09/17 11:43:47;;;;;;;2.30;1.30;;;12.10;99.90;;;;;;5051947;28;20196;-68
2022/09/17 11:46:18;;;;;;;2.78;1.27;;;11.90;99.90;;;;;;5048231;28;20193;-68
2022/09/17 11:48:51;;;;;;;2.00;1.33;;;11.60;99.90;;;;;;5044103;28;20246;-68
2022/09/17 11:51:28;;;;;;;5.10;1.85;;;11.50;99.90;;;;;;5033458;28;20217;-68
2022/09/17 11:54:02;;;;;;;6.10;1.40;;;11.30;99.90;;;;;;5032346;28;20567;-67
2022/09/17 11:56:38;;;;;;;3.53;1.52;;;11.30;99.90;;;;;;5047993;28;20228;-67
2022/09/17 11:59:14;;;;;;;2.65;1.35;;;11.20;99.90;;;;;;5050643;28;20207;-67
2022/09/17 12:01:48;;;;;;;3.60;1.52;;;11.30;99.90;;;;;;5039918;28;20569;-67
2022/09/17 12:04:34;;;;;;;4.45;1.63;;;11.50;99.90;;;;;;5053394;28;20200;-68
2022/09/17 12:07:12;;;;;;;2.78;1.10;;;11.60;99.90;;;;;;5052797;28;20559;-68
2022/09/17 12:09:43;;;;;;;4.28;1.17;;;11.90;99.90;;;;;;5052165;28;20185;-68
2022/09/17 12:12:17;;;;;;;4.45;1.50;;;12.00;99.90;;;;;;5051875;28;20216;-68
2022/09/17 12:14:50;;;;;;;1.73;1.23;;;12.00;99.90;;;;;;5052682;28;20189;-67
2022/09/17 12:17:49;;;;;;;1.48;1.38;;;12.10;99.90;;;;;;5052118;28;20258;-67
2022/09/17 12:20:27;;;;;;;5.00;1.20;;;12.20;99.90;;;;;;5052167;28;20191;-68
2022/09/17 12:22:57;;;;;;;2.10;0.80;;;12.60;99.90;;;;;;5052353;28;20615;-68
2022/09/17 12:25:28;;;;;;;2.87;1.30;;;12.80;99.90;;;;;;5050934;28;21016;-68
2022/09/17 12:28:04;;;;;;;1.13;1.07;;;13.00;99.90;;;;;;5052022;28;20955;-67
2022/09/17 12:30:38;;;;;;;3.03;1.53;;;13.20;99.90;;;;;;5051930;28;20984;-70
2022/09/17 12:33:16;;;;;;;1.87;1.10;;;13.60;99.90;;;;;;5052796;28;20651;-68
2022/09/17 12:36:03;;;;;;;3.07;1.20;;;14.10;99.90;;;;;;5066848;28;20611;-68
2022/09/17 12:39:01;;;;;;;2.67;1.40;;;14.30;99.90;;;;;;5051201;28;20621;-68
2022/09/17 12:41:38;;;;;;;1.53;1.00;;;14.80;99.90;;;;;;5040947;28;21012;-68
2022/09/17 12:44:28;;;;;;;0.90;0.90;;;15.70;99.90;;;;;;5052128;28;20680;-68
2022/09/17 12:47:13;;;;;;;2.77;1.70;;;16.80;99.90;;;;;;5050013;28;20999;-68
2022/09/17 12:50:08;;;;;;;2.60;1.20;;;17.00;99.90;;;;;;5048432;28;21204;-68
2022/09/17 12:52:58;;;;;;;4.13;1.60;;;17.80;99.90;;;;;;5051964;28;20663;-68
2022/09/17 12:55:44;;;;;;;5.13;1.90;;;17.30;99.90;;;;;;5047083;28;20622;-68
2022/09/17 12:58:28;;;;;;;5.80;2.20;;;17.20;99.90;;;;;;5067293;28;20588;-68
2022/09/17 13:01:03;;;;;;;3.00;2.07;;;17.20;99.90;;;;;;5051372;28;20619;-68
2022/09/17 13:03:34;;;;;;;3.00;2.43;;;16.70;99.90;;;;;;5051852;28;20808;-68
2022/09/17 13:06:40;;;;;;;2.37;1.60;;;16.90;99.90;;;;;;5048859;28;20607;-68
2022/09/17 13:09:40;;;;;;;4.20;1.77;;;17.20;99.90;;;;;;5051438;28;20619;-68
2022/09/17 13:12:17;;;;;;;2.87;2.03;;;16.30;99.90;;;;;;5036523;28;20662;-68
2022/09/17 13:15:06;;;;;;;2.30;2.10;;;15.70;99.90;;;;;;5040940;28;20619;-68
2022/09/17 13:17:43;;;;;;;4.53;1.63;;;15.70;99.90;;;;;;5049595;28;20637;-68
2022/09/17 13:20:16;;;;;;;3.87;1.90;;;16.30;99.90;;;;;;5050990;28;20603;-68
2022/09/17 13:22:46;;;;;;;3.63;1.70;;;16.80;99.90;;;;;;5051109;28;20958;-68